sensor_id;sensor_type;location;lat;lon;timestamp;temperature;humidity
66623;DHT22;53493;50.888;20.650;2024-03-23T01:00:12;29;76
66623;DHT22;53493;50.888;20.650;2024-03-23T01:10:05;28;75
66623;DHT22;53493;50.888;20.650;2024-03-23T01:20:15;28;75
66623;DHT22;53493;50.888;20.650;2024-03-23T01:30:02;28;75
66623;DHT22;53493;50.888;20.650;2024-03-23T01:40:20;28;75
66623;DHT22;53493;50.888;20.650;2024-03-23T01:50:07;28;75
66623;DHT22;53493;50.888;20.650;2024-03-23T02:00:11;28;75
66623;DHT22;53493;50.888;20.650;2024-03-23T02:10:06;28;74
66623;DHT22;53493;50.888;20.650;2024-03-23T02:20:14;28;74
66623;DHT22;53493;50.888;20.650;2024-03-23T02:30:03;28;74
66623;DHT22;53493;50.888;20.650;2024-03-23T02:40:08;28;74
66623;DHT22;53493;50.888;20.650;2024-03-23T02:50:08;28;74
66623;DHT22;53493;50.888;20.650;2024-03-23T03:00:14;28;74
66623;DHT22;53493;50.888;20.650;2024-03-23T03:10:15;28;74
66623;DHT22;53493;50.888;20.650;2024-03-23T03:20:08;28;74
66623;DHT22;53493;50.888;20.650;2024-03-23T03:30:10;28;74
66623;DHT22;53493;50.888;20.650;2024-03-23T03:40:13;28;74
66623;DHT22;53493;50.888;20.650;2024-03-23T03:50:12;28;74
66623;DHT22;53493;50.888;20.650;2024-03-23T04:00:20;28;74
66623;DHT22;53493;50.888;20.650;2024-03-23T04:10:12;28;77
66623;DHT22;53493;50.888;20.650;2024-03-23T04:20:03;28;77
66623;DHT22;53493;50.888;20.650;2024-03-23T04:30:16;28;77
66623;DHT22;53493;50.888;20.650;2024-03-23T04:40:12;28;77
66623;DHT22;53493;50.888;20.650;2024-03-23T04:50:14;28;77
66623;DHT22;53493;50.888;20.650;2024-03-23T05:00:07;28;77
66623;DHT22;53493;50.888;20.650;2024-03-23T05:10:14;28;77
66623;DHT22;53493;50.888;20.650;2024-03-23T05:20:13;28;77
66623;DHT22;53493;50.888;20.650;2024-03-23T05:30:08;28;77
66623;DHT22;53493;50.888;20.650;2024-03-23T05:40:16;28;77
66623;DHT22;53493;50.888;20.650;2024-03-23T05:50:11;28;77
66623;DHT22;53493;50.888;20.650;2024-03-23T06:00:12;28;77
66623;DHT22;53493;50.888;20.650;2024-03-23T06:10:09;28;76
66623;DHT22;53493;50.888;20.650;2024-03-23T06:20:16;28;76
66623;DHT22;53493;50.888;20.650;2024-03-23T06:30:13;28;76
66623;DHT22;53493;50.888;20.650;2024-03-23T06:40:15;28;76
66623;DHT22;53493;50.888;20.650;2024-03-23T06:50:17;28;76
66623;DHT22;53493;50.888;20.650;2024-03-23T07:00:17;28;76
66623;DHT22;53493;50.888;20.650;2024-03-23T07:20:11;28;77
66623;DHT22;53493;50.888;20.650;2024-03-23T07:30:02;28;77
66623;DHT22;53493;50.888;20.650;2024-03-23T07:40:13;28;77
66623;DHT22;53493;50.888;20.650;2024-03-23T07:50:02;28;77
66623;DHT22;53493;50.888;20.650;2024-03-23T08:00:12;28;77
66623;DHT22;53493;50.888;20.650;2024-03-23T08:10:02;28;76
66623;DHT22;53493;50.888;20.650;2024-03-23T08:20:15;28;76
66623;DHT22;53493;50.888;20.650;2024-03-23T08:30:02;28;76
66623;DHT22;53493;50.888;20.650;2024-03-23T08:40:19;28;76
66623;DHT22;53493;50.888;20.650;2024-03-23T08:50:13;28;76
66623;DHT22;53493;50.888;20.650;2024-03-23T09:00:03;28;76
66623;DHT22;53493;50.888;20.650;2024-03-23T09:10:09;28;76
66623;DHT22;53493;50.888;20.650;2024-03-23T09:20:18;28;76
66623;DHT22;53493;50.888;20.650;2024-03-23T09:30:06;28;76
66623;DHT22;53493;50.888;20.650;2024-03-23T09:40:17;28;76
66623;DHT22;53493;50.888;20.650;2024-03-23T09:50:09;28;76
66623;DHT22;53493;50.888;20.650;2024-03-23T10:00:08;28;76
66623;DHT22;53493;50.888;20.650;2024-03-23T10:10:20;28;74
66623;DHT22;53493;50.888;20.650;2024-03-23T10:20:10;28;74
66623;DHT22;53493;50.888;20.650;2024-03-23T10:30:14;28;74
66623;DHT22;53493;50.888;20.650;2024-03-23T10:40:13;28;74
66623;DHT22;53493;50.888;20.650;2024-03-23T10:50:09;28;74
66623;DHT22;53493;50.888;20.650;2024-03-23T11:00:24;28;74
66623;DHT22;53493;50.888;20.650;2024-03-23T11:20:35;28;72
66623;DHT22;53493;50.888;20.650;2024-03-23T11:30:21;28;72
66623;DHT22;53493;50.888;20.650;2024-03-23T11:40:23;28;72
66623;DHT22;53493;50.888;20.650;2024-03-23T11:50:08;28;72
66623;DHT22;53493;50.888;20.650;2024-03-23T12:00:36;28;72
66623;DHT22;53493;50.888;20.650;2024-03-23T12:10:20;28;73
66623;DHT22;53493;50.888;20.650;2024-03-23T12:20:13;28;73
66623;DHT22;53493;50.888;20.650;2024-03-23T12:30:13;28;73
66623;DHT22;53493;50.888;20.650;2024-03-23T12:40:03;28;73
66623;DHT22;53493;50.888;20.650;2024-03-23T12:50:14;28;73
66623;DHT22;53493;50.888;20.650;2024-03-23T13:00:13;28;73
66623;DHT22;53493;50.888;20.650;2024-03-23T13:10:09;28;72
66623;DHT22;53493;50.888;20.650;2024-03-23T13:20:18;28;72
66623;DHT22;53493;50.888;20.650;2024-03-23T13:30:14;28;72
66623;DHT22;53493;50.888;20.650;2024-03-23T13:40:17;29;69
66623;DHT22;53493;50.888;20.650;2024-03-23T13:50:02;29;69
66623;DHT22;53493;50.888;20.650;2024-03-23T14:00:03;29;69
66623;DHT22;53493;50.888;20.650;2024-03-23T14:10:05;28;71
66623;DHT22;53493;50.888;20.650;2024-03-23T14:20:12;28;71
66623;DHT22;53493;50.888;20.650;2024-03-23T14:30:03;28;71
66623;DHT22;53493;50.888;20.650;2024-03-23T14:40:08;28;71
66623;DHT22;53493;50.888;20.650;2024-03-23T14:50:20;28;71
66623;DHT22;53493;50.888;20.650;2024-03-23T15:00:03;28;71
66623;DHT22;53493;50.888;20.650;2024-03-23T15:20:07;28;71
66623;DHT22;53493;50.888;20.650;2024-03-23T15:30:19;28;71
66623;DHT22;53493;50.888;20.650;2024-03-23T15:40:06;28;71
66623;DHT22;53493;50.888;20.650;2024-03-23T15:50:09;28;71
66623;DHT22;53493;50.888;20.650;2024-03-23T16:00:12;28;71
66623;DHT22;53493;50.888;20.650;2024-03-23T16:10:17;28;71
66623;DHT22;53493;50.888;20.650;2024-03-23T16:20:05;28;73
66623;DHT22;53493;50.888;20.650;2024-03-23T16:30:18;28;73
66623;DHT22;53493;50.888;20.650;2024-03-23T16:40:08;28;73
66623;DHT22;53493;50.888;20.650;2024-03-23T16:50:12;28;73
66623;DHT22;53493;50.888;20.650;2024-03-23T17:00:18;28;73
66623;DHT22;53493;50.888;20.650;2024-03-23T17:10:02;28;73
66623;DHT22;53493;50.888;20.650;2024-03-23T17:20:15;28;74
66623;DHT22;53493;50.888;20.650;2024-03-23T17:30:19;28;74
66623;DHT22;53493;50.888;20.650;2024-03-23T17:40:17;28;74
66623;DHT22;53493;50.888;20.650;2024-03-23T17:50:04;28;74
66623;DHT22;53493;50.888;20.650;2024-03-23T18:00:08;28;74
66623;DHT22;53493;50.888;20.650;2024-03-23T18:10:11;28;74
66623;DHT22;53493;50.888;20.650;2024-03-23T18:20:11;28;74
66623;DHT22;53493;50.888;20.650;2024-03-23T18:30:03;28;74
66623;DHT22;53493;50.888;20.650;2024-03-23T18:40:10;28;74
66623;DHT22;53493;50.888;20.650;2024-03-23T18:50:11;28;74
66623;DHT22;53493;50.888;20.650;2024-03-23T19:00:20;28;74
66623;DHT22;53493;50.888;20.650;2024-03-23T19:10:05;28;74
66623;DHT22;53493;50.888;20.650;2024-03-23T19:20:05;28;73
66623;DHT22;53493;50.888;20.650;2024-03-23T19:30:13;28;73
66623;DHT22;53493;50.888;20.650;2024-03-23T19:40:09;28;73
66623;DHT22;53493;50.888;20.650;2024-03-23T19:50:09;28;73
66623;DHT22;53493;50.888;20.650;2024-03-23T20:00:17;28;73
66623;DHT22;53493;50.888;20.650;2024-03-23T20:10:04;28;73
66623;DHT22;53493;50.888;20.650;2024-03-23T20:20:11;28;74
66623;DHT22;53493;50.888;20.650;2024-03-23T20:30:06;28;74
66623;DHT22;53493;50.888;20.650;2024-03-23T20:40:15;28;74
66623;DHT22;53493;50.888;20.650;2024-03-23T20:50:10;28;74
66623;DHT22;53493;50.888;20.650;2024-03-23T21:00:06;28;74
66623;DHT22;53493;50.888;20.650;2024-03-23T21:10:16;28;74
66623;DHT22;53493;50.888;20.650;2024-03-23T21:20:11;28;74
66623;DHT22;53493;50.888;20.650;2024-03-23T21:30:07;28;74
66623;DHT22;53493;50.888;20.650;2024-03-23T21:40:03;28;74
66623;DHT22;53493;50.888;20.650;2024-03-23T21:50:05;28;74
66623;DHT22;53493;50.888;20.650;2024-03-23T22:00:17;28;74
66623;DHT22;53493;50.888;20.650;2024-03-23T22:10:09;28;74
66623;DHT22;53493;50.888;20.650;2024-03-23T22:20:12;28;72
66623;DHT22;53493;50.888;20.650;2024-03-23T22:30:04;28;72
66623;DHT22;53493;50.888;20.650;2024-03-23T22:40:07;28;72
66623;DHT22;53493;50.888;20.650;2024-03-23T22:50:15;28;72
66623;DHT22;53493;50.888;20.650;2024-03-23T23:00:19;28;72
66623;DHT22;53493;50.888;20.650;2024-03-23T23:10:06;28;70
66623;DHT22;53493;50.888;20.650;2024-03-23T23:20:02;28;70
66623;DHT22;53493;50.888;20.650;2024-03-23T23:30:10;28;70
66623;DHT22;53493;50.888;20.650;2024-03-23T23:40:08;28;70
66623;DHT22;53493;50.888;20.650;2024-03-23T23:50:10;28;70
